Time;durP1;ratioP1;P1;durP2;ratioP2;P2;SDS_P1;SDS_P2;PMS_P1;PMS_P2;Temp;Humidity;BMP_temperature;BMP_pressure;BME280_temperature;BME280_humidity;BME280_pressure;Samples;Min_cycle;Max_cycle;Signal;HPM_P1;HPM_P2
2022/07/24 00:01:48;;;;;;;;;;;15.80;99.90;;;;;;5072013;28;20052;-66
2022/07/24 00:04:13;;;;;;;7.22;4.95;;;15.30;99.90;;;;;;5071287;28;19924;-69
2022/07/24 00:06:39;;;;;;;;;;;15.60;99.90;;;;;;5070831;28;20526;-68
2022/07/24 00:09:05;;;;;;;6.57;4.82;;;15.50;99.90;;;;;;5071424;28;20285;-67
2022/07/24 00:11:31;;;;;;;8.65;5.03;;;15.60;99.90;;;;;;5071478;28;20052;-67
2022/07/24 00:13:57;;;;;;;;;;;15.40;99.90;;;;;;5070593;28;20052;-67
2022/07/24 00:16:22;;;;;;;7.25;5.20;;;16.60;99.90;;;;;;5071583;28;19927;-67
2022/07/24 00:18:48;;;;;;;;;;;15.40;99.90;;;;;;5071451;28;20052;-69
2022/07/24 00:21:14;;;;;;;7.35;5.20;;;16.20;99.90;;;;;;5071581;28;19927;-67
2022/07/24 00:23:39;;;;;;;;;;;15.30;99.90;;;;;;5070248;28;20053;-68
2022/07/24 00:26:05;;;;;;;8.93;5.13;;;15.40;99.90;;;;;;5071464;28;19922;-68
2022/07/24 00:28:31;;;;;;;;;;;15.40;99.90;;;;;;5071804;28;20047;-67
2022/07/24 00:30:57;;;;;;;6.57;4.95;;;15.50;99.90;;;;;;5071913;28;19920;-67
2022/07/24 00:33:22;;;;;;;;;;;15.50;99.90;;;;;;5071807;28;20049;-67
2022/07/24 00:35:48;;;;;;;8.57;5.15;;;15.20;99.90;;;;;;5071501;28;20011;-68
2022/07/24 00:38:14;;;;;;;;;;;15.60;99.90;;;;;;5072003;28;20048;-67
2022/07/24 00:40:39;;;;;;;8.27;5.07;;;15.20;99.90;;;;;;5070985;28;19931;-67
2022/07/24 00:43:05;;;;;;;;;;;15.30;99.90;;;;;;5071736;28;20049;-67
2022/07/24 00:45:31;;;;;;;9.48;4.65;;;15.50;99.90;;;;;;5071166;28;19924;-68
2022/07/24 00:47:56;;;;;;;;;;;15.60;99.90;;;;;;5071644;28;20490;-68
2022/07/24 00:50:23;;;;;;;7.80;4.35;;;15.10;99.90;;;;;;5071207;28;19920;-66
2022/07/24 00:52:49;;;;;;;6.10;4.55;;;15.30;99.90;;;;;;5075238;28;20487;-67
2022/07/24 00:55:15;;;;;;;;;;;15.50;99.90;;;;;;5074520;28;20177;-67
2022/07/24 00:57:43;;;;;;;7.68;4.47;;;15.30;99.90;;;;;;5075062;28;20362;-68
2022/07/24 01:00:10;;;;;;;6.63;4.45;;;15.20;99.90;;;;;;5075392;28;20149;-68
2022/07/24 01:02:40;;;;;;;6.18;4.70;;;15.40;99.90;;;;;;5074706;28;20174;-66
2022/07/24 01:05:06;;;;;;;4.57;4.03;;;15.30;99.90;;;;;;5075026;28;20070;-66
2022/07/24 01:07:32;;;;;;;8.05;4.43;;;15.60;99.90;;;;;;5074914;28;20044;-67
2022/07/24 01:09:57;;;;;;;;;;;15.70;99.90;;;;;;5075371;28;20382;-68
2022/07/24 01:12:23;;;;;;;8.38;4.47;;;15.60;99.90;;;;;;5074869;28;19986;-68
2022/07/24 01:14:49;;;;;;;;;;;15.30;99.90;;;;;;5074196;28;20155;-67
2022/07/24 01:17:14;;;;;;;6.80;5.47;;;15.40;99.90;;;;;;5074696;28;20425;-68
2022/07/24 01:19:40;;;;;;;;;;;15.40;99.90;;;;;;5075293;28;20048;-68
2022/07/24 01:22:05;;;;;;;6.25;4.68;;;15.20;99.90;;;;;;5074772;28;19927;-68
2022/07/24 01:24:31;;;;;;;;;;;15.20;99.90;;;;;;5075071;28;20098;-68
2022/07/24 01:26:57;;;;;;;8.02;5.35;;;15.60;99.90;;;;;;5074627;28;20266;-69
2022/07/24 01:29:22;;;;;;;;;;;15.00;99.90;;;;;;5073675;28;20103;-66
2022/07/24 01:31:48;;;;;;;6.65;4.72;;;15.40;99.90;;;;;;5074441;28;19924;-66
2022/07/24 01:34:13;;;;;;;;;;;15.30;99.90;;;;;;5075064;28;20052;-68
2022/07/24 01:36:39;;;;;;;7.28;5.32;;;15.40;99.90;;;;;;5074521;28;19935;-70
2022/07/24 01:39:05;;;;;;;;;;;15.30;99.90;;;;;;5074872;28;20047;-66
2022/07/24 01:41:31;;;;;;;7.95;5.35;;;15.20;99.90;;;;;;5074040;28;20422;-68
2022/07/24 01:43:56;;;;;;;;;;;15.50;99.90;;;;;;5075018;28;20108;-67
2022/07/24 01:46:22;;;;;;;8.20;5.97;;;14.90;99.90;;;;;;5074397;28;20010;-67
2022/07/24 01:48:48;;;;;;;;;;;15.30;99.90;;;;;;5074810;28;20474;-67
2022/07/24 01:51:13;;;;;;;8.18;5.63;;;15.20;99.90;;;;;;5074203;28;19981;-66
2022/07/24 01:53:39;;;;;;;;;;;15.10;99.90;;;;;;5073167;28;20553;-67
2022/07/24 01:56:05;;;;;;;9.57;5.60;;;15.20;99.90;;;;;;5074138;28;20019;-68
2022/07/24 01:58:30;;;;;;;;;;;15.30;99.90;;;;;;5074283;28;20386;-67
2022/07/24 02:00:56;;;;;;;8.23;6.28;;;15.30;99.90;;;;;;5073931;28;19920;-67
2022/07/24 02:03:21;;;;;;;;;;;15.00;99.90;;;;;;5072160;28;20052;-67
2022/07/24 02:05:47;;;;;;;8.48;6.20;;;15.00;99.90;;;;;;5074027;28;19928;-67
2022/07/24 02:08:13;;;;;;;;;;;14.70;99.90;;;;;;5074327;28;20051;-67
2022/07/24 02:10:39;;;;;;;9.85;6.30;;;15.20;99.90;;;;;;5055727;28;19926;-66
2022/07/24 02:13:06;;;;;;;7.30;6.50;;;14.80;99.90;;;;;;5073645;28;20142;-68
2022/07/24 02:15:32;;;;;;;9.95;6.28;;;14.80;99.90;;;;;;5073604;28;20048;-68
2022/07/24 02:18:00;;;;;;;7.45;6.75;;;15.10;99.90;;;;;;5073649;28;20489;-67
2022/07/24 02:20:27;;;;;;;11.75;6.95;;;15.00;99.90;;;;;;5073626;28;20124;-67
2022/07/24 02:22:53;;;;;;;8.88;6.88;;;15.40;99.90;;;;;;5073528;28;20174;-66
2022/07/24 02:25:19;;;;;;;;;;;15.30;99.90;;;;;;5073835;28;20109;-67
2022/07/24 02:27:45;;;;;;;9.25;7.60;;;14.90;99.90;;;;;;5073499;28;19924;-68
2022/07/24 02:30:12;;;;;;;;;;;15.00;99.90;;;;;;5073597;28;20044;-66
2022/07/24 02:32:38;;;;;;;;;;;14.70;99.90;;;;;;5073969;28;19970;-68
2022/07/24 02:35:04;;;;;;;10.48;7.25;;;15.30;99.90;;;;;;5073420;28;19920;-66
2022/07/24 02:37:30;;;;;;;8.40;7.03;;;14.90;99.90;;;;;;5073277;28;20059;-69
2022/07/24 02:39:56;;;;;;;;;;;14.80;99.90;;;;;;5073566;28;20048;-68
2022/07/24 02:42:21;;;;;;;10.23;6.85;;;15.10;99.90;;;;;;5073202;28;19920;-67
2022/07/24 02:44:47;;;;;;;;;;;15.10;99.90;;;;;;5073610;28;20127;-66
2022/07/24 02:47:13;;;;;;;8.93;7.05;;;15.20;99.90;;;;;;5073128;28;20379;-66
2022/07/24 02:49:39;;;;;;;;;;;15.00;99.90;;;;;;5073577;28;20056;-67
2022/07/24 02:52:04;;;;;;;8.68;7.45;;;15.00;99.90;;;;;;5071626;28;19921;-68
2022/07/24 02:54:30;;;;;;;;;;;15.10;99.90;;;;;;5073289;28;20052;-69
2022/07/24 02:56:56;;;;;;;10.00;7.10;;;16.00;99.90;;;;;;5072557;28;20389;-68
2022/07/24 02:59:22;;;;;;;;;;;14.80;99.90;;;;;;5073393;28;20045;-66
2022/07/24 03:01:47;;;;;;;9.95;7.78;;;14.90;99.90;;;;;;5072977;28;19920;-67
2022/07/24 03:04:13;;;;;;;;;;;15.00;99.90;;;;;;5073195;28;20485;-66
2022/07/24 03:06:39;;;;;;;9.40;8.43;;;15.10;99.90;;;;;;5072772;28;19924;-67
2022/07/24 03:09:04;;;;;;;;;;;15.30;99.90;;;;;;5073052;28;20500;-70
2022/07/24 03:11:30;;;;;;;11.68;7.78;;;15.00;99.90;;;;;;5072178;28;19924;-67
2022/07/24 03:13:55;;;;;;;;;;;14.90;99.90;;;;;;5072816;28;20378;-68
2022/07/24 03:16:21;;;;;;;9.32;7.72;;;15.10;99.90;;;;;;5072684;28;19928;-66
2022/07/24 03:18:48;;;;;;;;;;;15.60;99.90;;;;;;5072944;28;20148;-66
2022/07/24 03:21:15;;;;;;;9.73;7.90;;;15.10;99.90;;;;;;5072372;28;20400;-67
2022/07/24 03:23:41;;;;;;;12.30;8.40;;;15.00;99.90;;;;;;5072262;28;20779;-67
2022/07/24 03:26:07;;;;;;;10.07;8.10;;;15.20;99.90;;;;;;5070732;28;20044;-67
2022/07/24 03:28:33;;;;;;;9.93;8.38;;;16.30;99.90;;;;;;5072501;28;20044;-68
2022/07/24 03:31:00;;;;;;;10.77;8.48;;;15.00;99.90;;;;;;5071030;28;20367;-66
2022/07/24 03:33:26;;;;;;;8.55;7.70;;;15.10;99.90;;;;;;5072489;28;20053;-66
2022/07/24 03:35:52;;;;;;;9.43;8.43;;;15.20;99.90;;;;;;5072460;28;20537;-66
2022/07/24 03:38:18;;;;;;;13.20;8.55;;;16.80;99.90;;;;;;5072445;28;20076;-67
2022/07/24 03:40:44;;;;;;;11.73;9.52;;;15.00;99.90;;;;;;5071901;28;20330;-66
2022/07/24 03:43:09;;;;;;;;;;;14.80;99.90;;;;;;5072487;28;20055;-66
2022/07/24 03:45:35;;;;;;;10.10;8.75;;;14.80;99.90;;;;;;5072007;28;19931;-65
2022/07/24 03:48:01;;;;;;;;;;;15.20;99.90;;;;;;5072429;28;20085;-67
2022/07/24 03:50:27;;;;;;;12.25;8.85;;;15.20;99.90;;;;;;5072019;28;19978;-66
2022/07/24 03:52:52;;;;;;;10.55;8.85;;;14.80;99.90;;;;;;5071653;28;20051;-65
2022/07/24 03:55:18;;;;;;;;;;;15.00;99.90;;;;;;5070631;28;20055;-66
2022/07/24 03:57:44;;;;;;;12.93;9.32;;;14.60;99.90;;;;;;5072312;28;20328;-66
2022/07/24 04:00:09;;;;;;;;;;;15.20;99.90;;;;;;5071373;28;20048;-66
2022/07/24 04:02:35;;;;;;;10.25;8.70;;;15.00;99.90;;;;;;5071842;28;19920;-66
2022/07/24 04:05:01;;;;;;;11.13;9.40;;;14.90;99.90;;;;;;5071773;28;20052;-65
2022/07/24 04:07:26;;;;;;;;;;;15.00;99.90;;;;;;5070888;28;20098;-66
2022/07/24 04:09:52;;;;;;;11.38;8.80;;;14.90;99.90;;;;;;5071270;28;20024;-66
2022/07/24 04:12:18;;;;;;;12.38;9.73;;;14.90;99.90;;;;;;5071894;28;20125;-66
2022/07/24 04:14:43;;;;;;;13.93;10.02;;;14.80;99.90;;;;;;5071825;28;20055;-67
2022/07/24 04:17:09;;;;;;;11.25;10.10;;;15.20;99.90;;;;;;5071629;28;20474;-66
2022/07/24 04:19:35;;;;;;;;;;;15.70;99.90;;;;;;5072077;28;20040;-66
2022/07/24 04:22:00;;;;;;;13.27;10.05;;;15.90;99.90;;;;;;5071409;28;19920;-66
2022/07/24 04:24:26;;;;;;;;;;;14.70;99.90;;;;;;5070338;28;20102;-66
2022/07/24 04:26:51;;;;;;;13.75;10.00;;;14.80;99.90;;;;;;5070830;28;20397;-69
2022/07/24 04:29:17;;;;;;;;;;;14.60;99.90;;;;;;5072274;28;20080;-67
2022/07/24 04:31:43;;;;;;;14.18;10.70;;;14.80;99.90;;;;;;5071433;28;20366;-66
2022/07/24 04:34:09;;;;;;;14.93;11.00;;;14.80;99.90;;;;;;5071516;28;20378;-67
2022/07/24 04:36:35;;;;;;;14.50;10.38;;;16.00;99.90;;;;;;5071475;28;20532;-67
2022/07/24 04:39:00;;;;;;;;;;;14.70;99.90;;;;;;5071403;28;20052;-66
2022/07/24 04:41:26;;;;;;;13.35;10.75;;;14.80;99.90;;;;;;5071253;28;20537;-66
2022/07/24 04:43:51;;;;;;;;;;;14.90;99.90;;;;;;5071776;28;20453;-70
2022/07/24 04:46:17;;;;;;;17.33;11.38;;;15.00;99.90;;;;;;5071439;28;19921;-66
2022/07/24 04:48:43;;;;;;;;;;;15.00;99.90;;;;;;5071795;28;20406;-65
2022/07/24 04:51:09;;;;;;;15.98;10.50;;;14.80;99.90;;;;;;5071271;28;19935;-66
2022/07/24 04:53:34;;;;;;;;;;;15.10;99.90;;;;;;5071333;28;20470;-66
2022/07/24 04:56:00;;;;;;;11.98;10.13;;;15.50;99.90;;;;;;5071378;28;19924;-66
2022/07/24 04:58:26;;;;;;;;;;;15.20;99.90;;;;;;5070576;28;20182;-69
2022/07/24 05:00:52;;;;;;;16.00;10.73;;;15.40;99.90;;;;;;5071232;28;19932;-66
2022/07/24 05:03:17;;;;;;;;;;;15.20;99.90;;;;;;5071643;28;20033;-67
2022/07/24 05:05:43;;;;;;;13.18;10.25;;;15.70;99.90;;;;;;5071074;28;19927;-67
2022/07/24 05:08:09;;;;;;;;;;;15.30;99.90;;;;;;5071231;28;20048;-66
2022/07/24 05:10:34;;;;;;;11.88;10.20;;;15.60;99.90;;;;;;5071186;28;19920;-66
2022/07/24 05:13:00;;;;;;;;;;;15.40;99.90;;;;;;5070365;28;20045;-66
2022/07/24 05:15:26;;;;;;;15.63;10.02;;;15.80;99.90;;;;;;5070973;28;19973;-66
2022/07/24 05:17:51;;;;;;;;;;;15.90;99.90;;;;;;5071506;28;20105;-67
2022/07/24 05:20:17;;;;;;;12.18;9.48;;;15.80;99.90;;;;;;5070090;28;19924;-71
2022/07/24 05:22:42;;;;;;;;;;;16.00;99.90;;;;;;5071045;28;20040;-67
2022/07/24 05:25:08;;;;;;;14.55;10.13;;;16.10;99.90;;;;;;5071524;28;20320;-66
2022/07/24 05:27:34;;;;;;;;;;;16.60;99.90;;;;;;5071582;28;20382;-65
2022/07/24 05:30:00;;;;;;;13.55;9.60;;;16.60;99.90;;;;;;5071257;28;20367;-66
2022/07/24 05:32:26;;;;;;;13.23;9.73;;;16.30;99.90;;;;;;5070909;28;20041;-65
2022/07/24 05:34:51;;;;;;;;;;;16.90;99.90;;;;;;5071387;28;20634;-66
2022/07/24 05:37:17;;;;;;;12.13;9.02;;;16.70;99.90;;;;;;5070410;28;20460;-68
2022/07/24 05:39:43;;;;;;;;;;;16.50;99.90;;;;;;5074653;28;20087;-67
2022/07/24 05:42:09;;;;;;;14.68;10.25;;;16.60;99.90;;;;;;5074535;28;19920;-67
2022/07/24 05:44:34;;;;;;;;;;;16.90;99.90;;;;;;5073762;28;20394;-66
2022/07/24 05:47:00;;;;;;;13.18;9.70;;;17.10;99.90;;;;;;5090242;28;19928;-65
2022/07/24 05:49:25;;;;;;;;;;;17.30;99.90;;;;;;5073550;28;20146;-65
2022/07/24 05:51:51;;;;;;;13.38;10.50;;;17.40;99.90;;;;;;5073859;28;19927;-67
2022/07/24 05:54:17;;;;;;;;;;;17.30;99.90;;;;;;5074487;28;20041;-66
2022/07/24 05:56:42;;;;;;;15.30;10.80;;;17.50;99.90;;;;;;5074232;28;20026;-67
2022/07/24 05:59:08;;;;;;;;;;;17.50;99.90;;;;;;5074616;28;20048;-68
2022/07/24 06:01:34;;;;;;;14.73;11.63;;;17.70;99.90;;;;;;5074062;28;19969;-67
2022/07/24 06:03:59;;;;;;;;;;;18.00;99.90;;;;;;5074443;28;20052;-69
2022/07/24 06:06:25;;;;;;;13.57;10.93;;;18.00;99.90;;;;;;5073560;28;19924;-66
2022/07/24 06:08:50;;;;;;;;;;;17.50;99.90;;;;;;5074226;28;20045;-66
2022/07/24 06:11:17;;;;;;;14.57;10.60;;;17.70;99.90;;;;;;5073748;28;19927;-67
2022/07/24 06:13:43;;;;;;;18.08;11.63;;;17.80;99.90;;;;;;5073914;28;20089;-69
2022/07/24 06:16:09;;;;;;;;;;;17.50;99.90;;;;;;5074156;28;20053;-68
2022/07/24 06:18:34;;;;;;;19.55;12.25;;;17.60;99.90;;;;;;5072625;28;20420;-66
2022/07/24 06:21:00;;;;;;;;;;;17.70;99.90;;;;;;5073863;28;20059;-67
2022/07/24 06:23:25;;;;;;;16.80;11.85;;;17.70;99.90;;;;;;5073385;28;19924;-68
2022/07/24 06:25:51;;;;;;;17.00;11.55;;;17.70;99.90;;;;;;5073717;28;20489;-65
2022/07/24 06:28:17;;;;;;;15.02;11.43;;;18.10;99.90;;;;;;5073522;28;20090;-66
2022/07/24 06:30:43;;;;;;;;;;;18.40;99.90;;;;;;5074003;28;20052;-65
2022/07/24 06:33:08;;;;;;;14.30;11.63;;;18.50;99.90;;;;;;5072130;28;20007;-69
2022/07/24 06:35:34;;;;;;;17.67;12.25;;;18.60;99.90;;;;;;5063660;28;20063;-68
2022/07/24 06:38:00;;;;;;;;;;;18.50;99.90;;;;;;5071931;28;20048;-67
2022/07/24 06:40:27;;;;;;;15.93;12.13;;;18.40;99.90;;;;;;5071294;28;19932;-68
2022/07/24 06:42:52;;;;;;;18.10;12.35;;;18.80;99.90;;;;;;5069960;28;20408;-65
2022/07/24 06:45:19;;;;;;;15.77;12.18;;;19.00;99.90;;;;;;5071780;28;20048;-68
2022/07/24 06:47:44;;;;;;;19.90;13.90;;;19.10;99.90;;;;;;5067546;28;20143;-66
2022/07/24 06:50:11;;;;;;;;;;;19.30;99.90;;;;;;5069992;28;20044;-70
2022/07/24 06:52:37;;;;;;;17.40;13.05;;;19.40;99.90;;;;;;5071452;28;19920;-67
2022/07/24 06:55:03;;;;;;;20.45;14.25;;;19.20;99.90;;;;;;5071526;28;20051;-70
2022/07/24 06:57:29;;;;;;;22.73;15.23;;;19.50;99.90;;;;;;5070486;28;20052;-67
2022/07/24 06:59:55;;;;;;;22.02;14.95;;;19.40;99.90;;;;;;5070467;28;20105;-68
2022/07/24 07:02:21;;;;;;;18.77;13.93;;;19.90;99.90;;;;;;5070402;28;20048;-67
2022/07/24 07:04:48;;;;;;;17.58;14.30;;;19.90;99.90;;;;;;5070623;28;20052;-67
2022/07/24 07:07:15;;;;;;;21.63;14.85;;;20.30;99.90;;;;;;5071013;28;20133;-66
2022/07/24 07:09:41;;;;;;;18.13;14.00;;;20.80;99.90;;;;;;5070007;28;20052;-66
2022/07/24 07:12:08;;;;;;;18.08;13.90;;;20.70;99.90;;;;;;5070001;28;20162;-66
2022/07/24 07:14:33;;;;;;;17.30;13.82;;;21.00;99.90;;;;;;5071460;28;20795;-68
2022/07/24 07:16:59;;;;;;;17.40;12.23;;;21.30;99.90;;;;;;5071791;28;20071;-67
2022/07/24 07:19:25;;;;;;;14.40;12.75;;;21.40;99.90;;;;;;5072449;28;20080;-72
2022/07/24 07:21:50;;;;;;;16.75;11.98;;;21.30;99.90;;;;;;5072409;28;20131;-67
2022/07/24 07:24:16;;;;;;;13.80;11.57;;;21.30;99.90;;;;;;5072516;28;20509;-66
2022/07/24 07:26:42;;;;;;;16.42;11.77;;;21.60;99.90;;;;;;5071396;28;20056;-66
2022/07/24 07:29:08;;;;;;;15.13;11.32;;;21.70;99.90;;;;;;5072394;28;20040;-66
2022/07/24 07:31:34;;;;;;;13.38;11.15;;;21.50;99.90;;;;;;5064691;28;20044;-72
2022/07/24 07:33:59;;;;;;;14.98;10.68;;;21.60;99.90;;;;;;5070419;28;20136;-73
2022/07/24 07:36:25;;;;;;;17.17;11.48;;;21.30;99.90;;;;;;5070626;28;20405;-67
2022/07/24 07:38:51;;;;;;;13.93;10.93;;;21.20;99.90;;;;;;5069964;28;20048;-66
2022/07/24 07:41:19;;;;;;;14.43;10.23;;;21.30;99.90;;;;;;5070373;28;20067;-68
2022/07/24 07:43:49;;;;;;;15.85;10.32;;;21.20;99.90;;;;;;5070337;28;20076;-66
2022/07/24 07:46:15;;;;;;;13.90;10.57;;;21.10;99.90;;;;;;5070388;28;20052;-69
2022/07/24 07:48:41;;;;;;;13.50;10.23;;;21.30;99.90;;;;;;5069343;28;20395;-74
2022/07/24 07:51:07;;;;;;;17.98;11.38;;;21.10;99.90;;;;;;5066964;28;20040;-68
2022/07/24 07:53:33;;;;;;;12.85;10.50;;;21.20;99.90;;;;;;5070066;28;20223;-67
2022/07/24 07:55:58;;;;;;;15.23;10.60;;;20.90;99.90;;;;;;5059892;28;20049;-64
2022/07/24 07:58:26;;;;;;;11.98;9.05;;;21.00;99.90;;;;;;5070195;28;20478;-70
2022/07/24 08:00:52;;;;;;;11.15;8.82;;;21.00;99.90;;;;;;5070313;28;20052;-67
2022/07/24 08:03:17;;;;;;;13.10;9.50;;;20.80;99.90;;;;;;5055380;28;20052;-67
2022/07/24 08:05:43;;;;;;;11.10;9.02;;;20.90;99.90;;;;;;5051466;28;20048;-65
2022/07/24 08:08:09;;;;;;;13.45;9.32;;;21.00;99.90;;;;;;5065888;28;20573;-67
2022/07/24 08:10:34;;;;;;;15.10;9.38;;;21.00;99.90;;;;;;5071668;28;20535;-67
2022/07/24 08:13:00;;;;;;;13.13;9.90;;;21.10;99.90;;;;;;5071530;28;20037;-66
2022/07/24 08:15:26;;;;;;;14.32;10.10;;;20.90;99.90;;;;;;5071315;28;20048;-64
2022/07/24 08:17:56;;;;;;;15.73;10.13;;;21.30;99.90;;;;;;5069553;28;20049;-65
2022/07/24 08:20:23;;;;;;;15.65;10.63;;;21.00;99.90;;;;;;5071678;28;20055;-64
2022/07/24 08:22:49;;;;;;;14.45;10.52;;;20.90;99.90;;;;;;5071299;28;20041;-68
2022/07/24 08:25:15;;;;;;;14.43;10.18;;;21.10;99.90;;;;;;5071126;28;20055;-70
2022/07/24 08:27:40;;;;;;;13.05;9.90;;;21.40;99.90;;;;;;5071137;28;20044;-65
2022/07/24 08:30:07;;;;;;;11.60;9.98;;;21.20;99.90;;;;;;5069459;28;20123;-66
2022/07/24 08:32:33;;;;;;;13.88;9.35;;;21.30;99.90;;;;;;5070774;28;20136;-68
2022/07/24 08:34:59;;;;;;;13.73;9.27;;;21.50;99.90;;;;;;5071402;28;20088;-69
2022/07/24 08:37:25;;;;;;;12.88;8.93;;;21.30;99.90;;;;;;5059917;28;20137;-72
2022/07/24 08:39:51;;;;;;;13.95;9.05;;;21.40;99.90;;;;;;5069631;28;20048;-76
2022/07/24 08:42:16;;;;;;;10.82;9.07;;;21.50;99.90;;;;;;5069714;28;20041;-72
2022/07/24 08:44:42;;;;;;;11.27;7.82;;;21.80;99.90;;;;;;5069374;28;20497;-70
2022/07/24 08:47:08;;;;;;;12.40;8.50;;;22.10;99.90;;;;;;5069534;28;20493;-71
2022/07/24 08:49:36;;;;;;;11.68;7.28;;;22.50;99.90;;;;;;5068736;28;20057;-71
2022/07/24 08:52:08;;;;;;;13.23;7.63;;;22.30;99.90;;;;;;5069795;28;20087;-72
2022/07/24 08:54:35;;;;;;;9.93;7.50;;;22.10;99.90;;;;;;5070636;28;20052;-69
2022/07/24 08:57:02;;;;;;;13.55;7.55;;;22.50;99.90;;;;;;5071247;28;20127;-71
2022/07/24 08:59:28;;;;;;;9.55;8.05;;;22.60;99.90;;;;;;5070946;28;20045;-72
2022/07/24 09:01:54;;;;;;;13.38;7.80;;;23.00;99.90;;;;;;5071064;28;20041;-68
2022/07/24 09:04:38;;;;;;;12.32;8.00;;;22.80;99.90;;;;;;5071391;28;20058;-70
2022/07/24 09:07:26;;;;;;;14.27;7.35;;;22.80;99.90;;;;;;5071332;28;20230;-69
2022/07/24 09:10:04;;;;;;;10.40;7.80;;;22.70;99.90;;;;;;5071062;28;20050;-70
2022/07/24 09:12:41;;;;;;;12.82;7.55;;;23.10;99.90;;;;;;5072148;28;20052;-73
2022/07/24 09:15:23;;;;;;;10.27;7.15;;;23.30;99.90;;;;;;5073822;28;20040;-69
2022/07/24 09:17:49;;;;;;;10.82;6.93;;;22.80;99.90;;;;;;5058300;28;20052;-70
2022/07/24 09:20:14;;;;;;;10.93;6.93;;;22.90;99.90;;;;;;5066266;28;20091;-70
2022/07/24 09:22:41;;;;;;;8.88;6.45;;;23.10;99.90;;;;;;5074192;28;20048;-70
2022/07/24 09:25:14;;;;;;;11.02;6.22;;;23.10;99.90;;;;;;5074679;28;20204;-66
2022/07/24 09:27:41;;;;;;;9.18;6.05;;;23.30;99.90;;;;;;5074523;28;20054;-66
2022/07/24 09:30:09;;;;;;;11.07;6.50;;;23.70;99.90;;;;;;5071493;28;20126;-66
2022/07/24 09:32:36;;;;;;;10.40;5.60;;;23.50;99.90;;;;;;5073915;28;20040;-65
2022/07/24 09:35:02;;;;;;;8.35;5.70;;;23.20;99.90;;;;;;5074448;28;20060;-69
2022/07/24 09:37:29;;;;;;;7.15;5.47;;;23.20;99.90;;;;;;5074212;28;20084;-67
2022/07/24 09:40:06;;;;;;;10.25;5.85;;;22.70;99.90;;;;;;5074158;28;20057;-69
2022/07/24 09:42:38;;;;;;;8.60;5.30;;;23.00;99.90;;;;;;5056412;28;20049;-70
2022/07/24 09:45:07;;;;;;;12.77;5.88;;;23.30;99.90;;;;;;5072759;28;20090;-71
2022/07/24 09:47:34;;;;;;;8.20;5.15;;;22.90;99.90;;;;;;5073967;28;20410;-73
2022/07/24 09:50:15;;;;;;;6.95;4.85;;;23.20;99.90;;;;;;5074127;28;20139;-71
2022/07/24 09:52:42;;;;;;;8.65;4.63;;;22.90;99.90;;;;;;5074226;28;20052;-72
2022/07/24 09:55:23;;;;;;;8.88;4.65;;;23.00;99.90;;;;;;5089718;28;20045;-70
2022/07/24 09:57:49;;;;;;;7.10;5.13;;;23.00;99.90;;;;;;5073899;28;20052;-71
2022/07/24 10:00:15;;;;;;;6.05;4.43;;;23.10;99.90;;;;;;5074066;28;20041;-70
2022/07/24 10:02:44;;;;;;;8.77;4.50;;;23.40;99.90;;;;;;5074079;28;20048;-73
2022/07/24 10:05:12;;;;;;;8.13;4.50;;;23.70;99.90;;;;;;5074132;28;20506;-72
2022/07/24 10:07:39;;;;;;;11.80;5.05;;;23.60;99.90;;;;;;5073900;28;20087;-75
2022/07/24 10:10:05;;;;;;;8.40;4.68;;;24.80;99.90;;;;;;5073909;28;20048;-70
2022/07/24 10:12:31;;;;;;;9.48;4.43;;;24.60;99.90;;;;;;5073522;28;20727;-70
2022/07/24 10:15:00;;;;;;;9.07;3.90;;;24.70;99.90;;;;;;5073670;28;20123;-73
2022/07/24 10:17:33;;;;;;;7.43;4.18;;;24.90;99.90;;;;;;5072869;28;20053;-70
2022/07/24 10:20:04;;;;;;;5.85;4.35;;;25.10;99.90;;;;;;5073824;28;20099;-71
2022/07/24 10:22:38;;;;;;;5.65;3.58;;;25.00;99.90;;;;;;5073766;28;20430;-71
2022/07/24 10:25:09;;;;;;;4.75;3.65;;;25.30;99.90;;;;;;5072858;28;20048;-71
2022/07/24 10:27:37;;;;;;;5.18;3.90;;;25.20;99.90;;;;;;5073200;28;20055;-70
2022/07/24 10:30:11;;;;;;;5.13;3.80;;;25.00;99.90;;;;;;5073171;28;20461;-71
2022/07/24 10:32:38;;;;;;;12.57;3.80;;;25.20;99.90;;;;;;5073596;28;20041;-70
2022/07/24 10:35:16;;;;;;;4.90;3.53;;;24.40;99.90;;;;;;5072214;28;20467;-75
2022/07/24 10:38:00;;;;;;;6.22;3.60;;;24.60;99.90;;;;;;5073170;28;20049;-71
2022/07/24 10:40:49;;;;;;;7.50;3.60;;;24.60;99.90;;;;;;5072203;28;20488;-73
2022/07/24 10:43:18;;;;;;;9.27;3.50;;;24.70;99.90;;;;;;5072912;28;20091;-73
2022/07/24 10:45:46;;;;;;;6.70;3.38;;;25.10;99.90;;;;;;5073097;28;20048;-72
2022/07/24 10:48:25;;;;;;;5.75;3.70;;;25.60;99.90;;;;;;5073175;28;20094;-72
2022/07/24 10:51:08;;;;;;;6.15;4.40;;;25.70;99.90;;;;;;5072910;28;20059;-71
2022/07/24 10:53:37;;;;;;;5.95;4.35;;;25.90;99.90;;;;;;5072107;28;20044;-77
2022/07/24 10:56:24;;;;;;;8.55;4.80;;;25.60;99.90;;;;;;5072729;28;20449;-74
2022/07/24 10:58:58;;;;;;;4.50;3.88;;;25.70;99.90;;;;;;5073214;28;20071;-75
2022/07/24 11:01:34;;;;;;;7.25;3.70;;;25.10;99.90;;;;;;5073332;28;20040;-76
2022/07/24 11:04:00;;;;;;;;;;;25.80;99.90;;;;;;5055373;28;20480;-77
2022/07/24 11:06:51;;;;;;;4.82;3.67;;;25.40;99.90;;;;;;5072526;28;20591;-78
2022/07/24 11:09:24;;;;;;;8.52;4.07;;;25.80;99.90;;;;;;5044567;28;20067;-78
2022/07/24 11:11:56;;;;;;;10.45;3.88;;;26.10;99.90;;;;;;5064471;28;20257;-72
2022/07/24 11:14:37;;;;;;;7.28;4.07;;;26.50;99.90;;;;;;5057551;28;20528;-73
2022/07/24 11:17:41;;;;;;;3.60;3.00;;;26.20;99.90;;;;;;5067095;28;20127;-75
2022/07/24 11:20:15;;;;;;;12.55;4.10;;;26.80;99.90;;;;;;5070227;28;20040;-74
2022/07/24 11:22:50;;;;;;;4.55;3.20;;;26.90;99.90;;;;;;5072580;28;20044;-75
2022/07/24 11:25:20;;;;;;;6.78;2.70;;;26.60;99.90;;;;;;5072145;28;20131;-75
2022/07/24 11:28:11;;;;;;;7.65;2.97;;;26.10;99.90;;;;;;5070980;28;20405;-73
2022/07/24 11:30:45;;;;;;;8.13;2.95;;;26.10;99.90;;;;;;5063899;28;20059;-75
2022/07/24 11:33:12;;;;;;;4.53;2.80;;;26.00;99.90;;;;;;5071036;28;20131;-76
2022/07/24 11:35:45;;;;;;;3.38;2.60;;;26.20;99.90;;;;;;5072270;28;20118;-76
2022/07/24 11:38:10;;;;;;;5.43;3.10;;;26.50;99.90;;;;;;5072207;28;20482;-75
2022/07/24 11:40:37;;;;;;;5.68;3.45;;;26.10;99.90;;;;;;5071645;28;20084;-73
2022/07/24 11:43:05;;;;;;;5.18;3.40;;;26.60;99.90;;;;;;5072042;28;20056;-75
2022/07/24 11:45:32;;;;;;;8.02;3.72;;;26.80;99.90;;;;;;5072187;28;20044;-74
2022/07/24 11:47:58;;;;;;;10.57;3.20;;;27.00;99.90;;;;;;5072069;28;20409;-78
2022/07/24 11:50:25;;;;;;;8.25;3.78;;;27.00;99.90;;;;;;5069003;28;20068;-74
2022/07/24 11:52:52;;;;;;;5.88;3.53;;;27.10;99.90;;;;;;5070251;28;20106;-74
2022/07/24 11:55:24;;;;;;;5.55;3.42;;;27.00;99.90;;;;;;5071388;28;20502;-75
2022/07/24 11:57:55;;;;;;;6.97;3.38;;;27.40;99.90;;;;;;5072045;28;20058;-74
2022/07/24 12:00:28;;;;;;;9.32;3.03;;;27.80;99.90;;;;;;5071856;28;20131;-76
2022/07/24 12:02:57;;;;;;;6.30;3.50;;;27.40;99.90;;;;;;5070535;28;20063;-75
2022/07/24 12:05:28;;;;;;;5.40;3.13;;;27.80;99.90;;;;;;5071517;28;20576;-80
2022/07/24 12:07:59;;;;;;;3.58;3.00;;;27.60;99.90;;;;;;5071695;28;20084;-75
2022/07/24 12:10:26;;;;;;;9.13;3.30;;;27.50;99.90;;;;;;5071989;28;20098;-76
2022/07/24 12:12:56;;;;;;;9.98;3.45;;;27.30;99.90;;;;;;5071752;28;20088;-74
2022/07/24 12:15:25;;;;;;;10.05;3.83;;;27.30;99.90;;;;;;5071608;28;20072;-73
2022/07/24 12:17:55;;;;;;;6.10;2.85;;;26.80;99.90;;;;;;5071449;28;20045;-73
2022/07/24 12:20:22;;;;;;;5.20;3.53;;;26.60;99.90;;;;;;5071916;28;20056;-75
2022/07/24 12:22:48;;;;;;;5.13;2.90;;;27.00;99.90;;;;;;5071271;28;20044;-79
2022/07/24 12:25:14;;;;;;;5.75;3.10;;;27.10;99.90;;;;;;5071583;28;20090;-75
2022/07/24 12:27:47;;;;;;;5.18;2.78;;;27.20;99.90;;;;;;5071618;28;20056;-75
2022/07/24 12:30:27;;;;;;;4.00;3.15;;;27.40;99.90;;;;;;5071520;28;20049;-74
2022/07/24 12:33:09;;;;;;;5.72;2.85;;;27.10;99.90;;;;;;5071770;28;20113;-76
2022/07/24 12:35:59;;;;;;;3.20;2.83;;;27.20;99.90;;;;;;5071503;28;20078;-76
2022/07/24 12:38:29;;;;;;;4.35;2.70;;;27.60;99.90;;;;;;5071115;28;20051;-74
2022/07/24 12:41:15;;;;;;;8.38;2.65;;;27.80;99.90;;;;;;5070003;28;20040;-74
2022/07/24 12:44:00;;;;;;;7.55;2.22;;;27.70;99.90;;;;;;5071465;28;20048;-77
2022/07/24 12:46:40;;;;;;;5.07;2.60;;;27.40;99.90;;;;;;5071745;28;20106;-75
2022/07/24 12:49:12;;;;;;;3.75;2.85;;;27.10;99.90;;;;;;5075581;28;20090;-77
2022/07/24 12:51:59;;;;;;;3.33;2.80;;;27.00;99.90;;;;;;5075306;28;20044;-77
2022/07/24 12:54:35;;;;;;;5.43;2.60;;;26.60;99.90;;;;;;5075674;28;20098;-77
2022/07/24 12:57:08;;;;;;;;;;;27.10;99.90;;;;;;5075701;28;20084;-76
2022/07/24 12:59:35;;;;;;;5.00;3.25;;;26.80;99.90;;;;;;5075373;28;19924;-77
2022/07/24 13:02:09;;;;;;;6.50;2.75;;;26.70;99.90;;;;;;5075146;28;20495;-75